createdAt,value
2023-02-22T00:02:35.341Z,95.9
2023-02-22T00:14:35.334Z,96.4
2023-02-22T00:26:35.359Z,96.3
2023-02-22T00:38:35.883Z,96.1
2023-02-22T00:50:35.428Z,96.7
2023-02-22T01:02:35.472Z,96.8
2023-02-22T01:14:35.344Z,96.9
2023-02-22T01:26:35.400Z,96.7
2023-02-22T01:38:35.330Z,96.9
2023-02-22T01:50:35.340Z,96.9
2023-02-22T02:02:36.685Z,96.9
2023-02-22T02:14:35.332Z,96.9
2023-02-22T02:26:35.322Z,96.9
2023-02-22T02:38:35.362Z,96.9
2023-02-22T02:50:35.409Z,96.9
2023-02-22T03:02:35.424Z,96.8
2023-02-22T03:14:35.329Z,96.8
2023-02-22T03:26:35.425Z,96.9
2023-02-22T03:38:35.335Z,96.8
2023-02-22T03:50:35.381Z,96.7
2023-02-22T04:02:35.389Z,96.8
2023-02-22T04:14:35.332Z,96.8
2023-02-22T04:26:35.359Z,96.8
2023-02-22T04:38:35.328Z,96.8
2023-02-22T04:50:35.413Z,96.7
2023-02-22T05:02:35.463Z,96.7
2023-02-22T05:14:35.329Z,96.7
2023-02-22T05:26:35.326Z,96.7
2023-02-22T05:38:35.329Z,96.7
2023-02-22T05:50:35.369Z,96.8
2023-02-22T06:02:35.330Z,96.5
2023-02-22T06:14:35.382Z,96.5
2023-02-22T06:26:35.407Z,96.5
2023-02-22T06:38:35.327Z,96.5
2023-02-22T06:50:36.038Z,96.4
2023-02-22T07:02:35.327Z,96.4
2023-02-22T07:14:35.432Z,96.4
2023-02-22T07:26:35.448Z,96.5
2023-02-22T07:38:35.344Z,96.7
2023-02-22T07:50:35.422Z,96.8
2023-02-22T08:02:35.465Z,96.7
2023-02-22T08:14:35.359Z,96.8
2023-02-22T08:26:35.578Z,96.9
2023-02-22T08:38:35.377Z,97.0
2023-02-22T08:50:35.443Z,96.5
2023-02-22T09:02:35.406Z,94.8
2023-02-22T09:14:35.446Z,95.0
2023-02-22T09:38:35.356Z,94.8
2023-02-22T09:50:35.538Z,94.7
2023-02-22T10:02:35.425Z,93.0
2023-02-22T10:14:35.360Z,91.0
2023-02-22T10:26:35.359Z,87.0
2023-02-22T10:38:35.338Z,81.4
2023-02-22T10:50:35.418Z,79.1
2023-02-22T11:02:35.429Z,75.1
2023-02-22T11:14:35.333Z,74.3
2023-02-22T11:26:35.335Z,71.6
2023-02-22T11:38:35.335Z,71.7
2023-02-22T11:50:35.414Z,69.1
2023-02-22T12:02:35.390Z,68.2
2023-02-22T12:14:35.379Z,68.0
2023-02-22T12:26:35.406Z,67.4
2023-02-22T12:38:35.327Z,66.4
2023-02-22T12:50:35.334Z,63.7
2023-02-22T13:02:35.417Z,61.8
2023-02-22T13:14:35.322Z,61.1
2023-02-22T13:26:35.342Z,61.4
2023-02-22T13:38:35.415Z,61.4
2023-02-22T13:50:35.391Z,62.1
2023-02-22T14:02:35.353Z,64.0
2023-02-22T14:14:35.394Z,63.6
2023-02-22T14:26:35.428Z,64.4
2023-02-22T14:38:35.330Z,66.2
2023-02-22T14:50:35.394Z,66.4
2023-02-22T15:02:35.350Z,68.6
2023-02-22T15:14:35.318Z,68.4
2023-02-22T15:26:35.371Z,69.4
2023-02-22T15:38:35.371Z,70.0
2023-02-22T15:50:35.336Z,69.8
2023-02-22T16:02:35.413Z,70.3
2023-02-22T16:14:35.327Z,71.5
2023-02-22T16:26:35.324Z,72.0
2023-02-22T16:38:35.374Z,72.4
2023-02-22T16:50:35.428Z,72.3
2023-02-22T17:02:35.325Z,73.3
2023-02-22T17:14:35.335Z,73.6
2023-02-22T17:26:36.684Z,74.1
2023-02-22T17:38:35.364Z,75.2
2023-02-22T17:50:35.421Z,75.7
2023-02-22T18:02:35.426Z,76.3
2023-02-22T18:14:35.341Z,77.0
2023-02-22T18:26:35.399Z,77.4
2023-02-22T18:38:35.392Z,78.1
2023-02-22T18:50:35.502Z,78.7
2023-02-22T19:02:35.397Z,79.6
2023-02-22T19:14:35.403Z,80.2
2023-02-22T19:26:35.321Z,81.4
2023-02-22T19:38:35.325Z,82.6
2023-02-22T19:50:35.369Z,83.3
2023-02-22T20:02:35.400Z,84.1
2023-02-22T20:14:35.329Z,84.4
2023-02-22T20:26:35.337Z,84.8
2023-02-22T20:38:35.395Z,85.1
2023-02-22T20:50:35.403Z,85.4
2023-02-22T21:02:35.394Z,86.4
2023-02-22T21:14:35.331Z,86.5
2023-02-22T21:26:35.345Z,87.2
2023-02-22T21:38:35.383Z,88.0
2023-02-22T21:50:35.338Z,88.9
2023-02-22T22:02:35.399Z,90.5
2023-02-22T22:14:35.490Z,91.9
2023-02-22T22:26:35.368Z,92.5
2023-02-22T22:38:35.344Z,94.5
2023-02-22T22:50:35.422Z,95.2
2023-02-22T23:02:35.407Z,96.1
2023-02-22T23:14:35.320Z,96.6
2023-02-22T23:26:35.347Z,96.8
2023-02-22T23:38:35.438Z,97.3
2023-02-22T23:50:36.129Z,97.4
